Pelican Lake, Wisconsin
Current Conditions -  °F | °C
As of 4:07 AM on Friday 31 Oct 2014 (Local Time) from KRHI Reporting Station
Broken Clouds Broken Clouds  
Wind Chill: 18°   Ceiling: 2200
Heat Index: 28°   Visibility: 10mi
Dew Point: 23°   Wind: 12mph
Humidity: 81%   Direction: 350°N
Pressure: 30.22"   Gusts: 21mph
Location:  45.5°N, 89.17°W
Report Text: KRHI 310907Z AUTO 35010G18KT 10SM BKN022 M02/M05 A3022 RMK AO2 T10221050
Loading
Personal Weather Stations






























Interactive Weather Map
Tropical Storm Tracking
New forecast layout! Learn more

10-Day Weather Forecast

Advertisements
Track Severe Weather on mobile